createdAt,value
2022-12-18T00:01:28.313Z,68.30
2022-12-18T00:03:57.010Z,68.30
2022-12-18T00:06:26.423Z,68.30
2022-12-18T00:08:54.600Z,68.20
2022-12-18T00:11:25.023Z,68.20
2022-12-18T00:13:54.052Z,68.40
2022-12-18T00:16:24.714Z,68.50
2022-12-18T00:18:55.481Z,68.50
2022-12-18T00:21:23.755Z,68.60
2022-12-18T00:23:52.849Z,68.70
2022-12-18T00:26:26.119Z,68.70
2022-12-18T00:29:00.711Z,68.60
2022-12-18T00:31:28.925Z,68.90
2022-12-18T00:33:57.788Z,68.90
2022-12-18T00:36:29.498Z,68.70
2022-12-18T00:38:58.760Z,68.60
2022-12-18T00:41:41.081Z,68.60
2022-12-18T00:44:10.739Z,68.70
2022-12-18T00:46:38.485Z,68.60
2022-12-18T00:49:08.821Z,68.50
2022-12-18T00:51:36.976Z,68.70
2022-12-18T00:54:04.894Z,68.60
2022-12-18T00:56:32.886Z,68.70
2022-12-18T00:59:00.568Z,68.80
2022-12-18T01:01:28.287Z,68.80
2022-12-18T01:03:55.873Z,68.80
2022-12-18T01:06:23.352Z,68.70
2022-12-18T01:08:51.129Z,68.80
2022-12-18T01:11:20.399Z,68.70
2022-12-18T01:13:48.599Z,68.80
2022-12-18T01:16:18.996Z,68.90
2022-12-18T01:18:46.764Z,68.90
2022-12-18T01:21:17.483Z,68.80
2022-12-18T01:23:44.799Z,68.80
2022-12-18T01:26:16.240Z,68.80
2022-12-18T01:28:45.081Z,68.80
2022-12-18T01:31:25.217Z,68.80
2022-12-18T01:33:53.637Z,68.70
2022-12-18T01:36:24.763Z,68.70
2022-12-18T01:38:53.495Z,68.70
2022-12-18T01:41:25.655Z,68.80
2022-12-18T01:43:54.905Z,68.90
2022-12-18T01:46:25.287Z,69.00
2022-12-18T01:48:58.950Z,69.00
2022-12-18T01:51:30.868Z,68.90
2022-12-18T01:54:00.109Z,68.90
2022-12-18T01:56:28.278Z,69.00
2022-12-18T01:59:02.398Z,69.20
2022-12-18T02:01:31.959Z,69.30
2022-12-18T02:04:23.880Z,69.20
2022-12-18T02:07:09.319Z,69.30
2022-12-18T02:09:58.613Z,69.20
2022-12-18T02:12:39.870Z,69.20
2022-12-18T02:15:19.454Z,69.20
2022-12-18T02:17:55.883Z,69.10
2022-12-18T02:20:36.127Z,69.10
2022-12-18T02:23:26.696Z,69.20
2022-12-18T02:26:06.015Z,69.10
2022-12-18T02:28:38.633Z,69.00
2022-12-18T02:31:12.881Z,68.90
2022-12-18T02:33:43.055Z,68.50
2022-12-18T02:36:13.368Z,68.50
2022-12-18T02:38:42.003Z,68.80
2022-12-18T02:41:15.677Z,68.90
2022-12-18T02:44:08.862Z,69.00
2022-12-18T02:46:40.359Z,69.00
2022-12-18T02:49:29.537Z,68.80
2022-12-18T02:52:16.364Z,68.80
2022-12-18T02:54:59.227Z,68.80
2022-12-18T02:57:51.137Z,68.60
2022-12-18T03:00:30.134Z,68.80
2022-12-18T03:03:15.791Z,68.60
2022-12-18T03:05:58.934Z,68.60
2022-12-18T03:08:30.048Z,68.80
2022-12-18T03:11:04.327Z,68.90
2022-12-18T03:13:42.804Z,68.90
2022-12-18T03:16:15.423Z,69.20
2022-12-18T03:19:10.082Z,69.30
2022-12-18T03:21:44.413Z,69.20
2022-12-18T03:24:18.134Z,69.00
2022-12-18T03:26:51.846Z,69.00
2022-12-18T03:29:25.698Z,69.00
2022-12-18T03:31:59.574Z,69.00
2022-12-18T03:34:34.131Z,69.10
2022-12-18T03:37:06.418Z,69.10
2022-12-18T03:39:36.115Z,69.30
2022-12-18T03:42:21.266Z,69.40
2022-12-18T03:44:54.199Z,69.40
2022-12-18T03:47:48.070Z,69.30
2022-12-18T03:50:26.849Z,69.00
2022-12-18T03:53:12.456Z,69.00
2022-12-18T03:55:41.339Z,69.00
2022-12-18T03:58:11.194Z,69.20
2022-12-18T04:00:54.235Z,69.10
2022-12-18T04:03:26.707Z,69.20
2022-12-18T04:05:56.729Z,69.10
2022-12-18T04:08:26.089Z,69.20
2022-12-18T04:11:03.067Z,69.40
2022-12-18T04:13:39.069Z,69.40
2022-12-18T04:16:11.854Z,69.30
2022-12-18T04:18:42.869Z,69.30
2022-12-18T04:21:11.598Z,69.30
2022-12-18T04:23:39.720Z,69.40
2022-12-18T04:26:08.604Z,69.30
2022-12-18T04:28:50.055Z,69.30
2022-12-18T04:31:17.583Z,69.30
2022-12-18T04:33:45.649Z,69.50
2022-12-18T04:36:14.428Z,69.40
2022-12-18T04:38:42.611Z,69.40
2022-12-18T04:41:13.954Z,69.40
2022-12-18T04:43:43.036Z,69.40
2022-12-18T04:46:11.883Z,69.30
2022-12-18T04:48:40.341Z,69.30
2022-12-18T04:51:08.527Z,69.40
2022-12-18T04:53:36.646Z,69.30
2022-12-18T04:56:05.472Z,69.20
2022-12-18T04:58:33.179Z,69.00
2022-12-18T05:01:00.930Z,69.10
2022-12-18T05:03:28.555Z,69.30
2022-12-18T05:05:56.038Z,69.40
2022-12-18T05:08:24.489Z,69.40
2022-12-18T05:11:00.649Z,69.20
2022-12-18T05:13:29.503Z,69.20
2022-12-18T05:15:57.263Z,69.20
2022-12-18T05:18:26.398Z,69.20
2022-12-18T05:20:54.709Z,69.20
2022-12-18T05:23:24.021Z,69.30
2022-12-18T05:25:56.206Z,69.20
2022-12-18T05:28:25.628Z,69.40
2022-12-18T05:30:54.967Z,69.40
2022-12-18T05:33:24.737Z,69.40
2022-12-18T05:35:53.693Z,69.30
2022-12-18T05:38:23.313Z,69.30
2022-12-18T05:40:52.124Z,69.40
2022-12-18T05:43:22.674Z,69.40
2022-12-18T05:45:51.275Z,69.30
2022-12-18T05:48:19.469Z,69.30
2022-12-18T05:50:48.639Z,69.30
2022-12-18T05:53:18.302Z,69.10
2022-12-18T05:55:46.534Z,69.00
2022-12-18T05:58:15.378Z,69.00
2022-12-18T06:00:45.479Z,69.00
2022-12-18T06:03:14.494Z,69.00
2022-12-18T06:05:46.541Z,69.00
2022-12-18T06:08:15.059Z,69.10
2022-12-18T06:10:42.924Z,69.20
2022-12-18T06:13:10.499Z,69.40
2022-12-18T06:15:39.360Z,69.40
2022-12-18T06:18:06.848Z,69.40
2022-12-18T06:20:34.732Z,69.30
2022-12-18T06:23:01.933Z,69.30
2022-12-18T06:25:30.028Z,69.00
2022-12-18T06:27:57.550Z,69.20
2022-12-18T06:30:25.440Z,69.00
2022-12-18T06:32:56.598Z,69.00
2022-12-18T06:35:25.120Z,68.90
2022-12-18T06:37:52.561Z,69.00
2022-12-18T06:40:21.839Z,69.00
2022-12-18T06:42:49.554Z,69.10
2022-12-18T06:45:18.513Z,69.10
2022-12-18T06:47:46.038Z,69.10
2022-12-18T06:50:14.521Z,69.30
2022-12-18T06:52:42.060Z,69.20
2022-12-18T06:55:10.238Z,69.30
2022-12-18T06:57:38.546Z,69.30
2022-12-18T07:00:08.412Z,69.20
2022-12-18T07:02:36.353Z,69.10
2022-12-18T07:05:09.089Z,69.00
2022-12-18T07:07:38.126Z,69.10
2022-12-18T07:10:06.386Z,69.10
2022-12-18T07:12:33.905Z,69.10
2022-12-18T07:15:02.497Z,69.10
2022-12-18T07:17:30.684Z,69.00
2022-12-18T07:19:58.342Z,69.20
2022-12-18T07:22:27.117Z,69.20
2022-12-18T07:24:54.913Z,69.20
2022-12-18T07:27:24.761Z,69.30
2022-12-18T07:29:52.403Z,69.40
2022-12-18T07:32:19.837Z,69.20
2022-12-18T07:34:47.330Z,69.10
2022-12-18T07:37:14.951Z,69.20
2022-12-18T07:39:42.702Z,69.20
2022-12-18T07:42:24.020Z,69.30
2022-12-18T07:44:52.708Z,69.20
2022-12-18T07:47:19.978Z,69.20
2022-12-18T07:49:47.743Z,69.10
2022-12-18T07:52:15.163Z,69.10
2022-12-18T07:54:43.900Z,69.10
2022-12-18T07:57:33.768Z,69.30
2022-12-18T08:00:00.090Z,69.30
2022-12-18T08:02:27.675Z,69.10
2022-12-18T08:04:55.757Z,69.00
2022-12-18T08:07:23.355Z,68.90
2022-12-18T08:09:51.094Z,69.10
2022-12-18T08:12:18.405Z,69.10
2022-12-18T08:14:46.185Z,69.30
2022-12-18T08:17:13.484Z,69.30
2022-12-18T08:19:42.054Z,69.30
2022-12-18T08:22:10.452Z,69.40
2022-12-18T08:24:38.227Z,69.50
2022-12-18T08:27:29.288Z,69.30
2022-12-18T08:29:53.267Z,69.20
2022-12-18T08:32:21.059Z,69.40
2022-12-18T08:34:48.895Z,69.50
2022-12-18T08:37:16.288Z,69.50
2022-12-18T08:39:44.123Z,69.50
2022-12-18T08:42:25.712Z,69.50
2022-12-18T08:44:53.406Z,69.40
2022-12-18T08:47:20.826Z,69.00
2022-12-18T08:49:49.552Z,69.00
2022-12-18T08:52:17.114Z,69.30
2022-12-18T08:54:45.257Z,69.50
2022-12-18T08:57:12.591Z,69.30
2022-12-18T08:59:40.243Z,69.40
2022-12-18T09:02:12.961Z,69.40
2022-12-18T09:04:41.064Z,69.50
2022-12-18T09:07:08.538Z,69.40
2022-12-18T09:09:37.067Z,69.50
2022-12-18T09:12:04.590Z,69.80
2022-12-18T09:14:32.825Z,69.80
2022-12-18T09:17:00.858Z,69.60
2022-12-18T09:19:28.613Z,69.30
2022-12-18T09:21:56.063Z,68.90
2022-12-18T09:24:23.709Z,69.10
2022-12-18T09:26:57.778Z,69.30
2022-12-18T09:29:27.183Z,69.40
2022-12-18T09:31:54.947Z,69.60
2022-12-18T09:34:23.091Z,69.60
2022-12-18T09:36:51.576Z,69.50
2022-12-18T09:39:22.437Z,69.00
2022-12-18T09:41:57.434Z,69.00
2022-12-18T09:44:30.214Z,69.20
2022-12-18T09:47:06.516Z,69.20
2022-12-18T09:49:40.340Z,69.10
2022-12-18T09:52:35.570Z,69.00
2022-12-18T09:55:14.393Z,69.30
2022-12-18T09:57:48.937Z,69.30
2022-12-18T10:00:23.764Z,69.30
2022-12-18T10:02:54.328Z,69.10
2022-12-18T10:05:34.334Z,69.00
2022-12-18T10:08:18.224Z,68.50
2022-12-18T10:10:59.009Z,68.50
2022-12-18T10:13:36.039Z,68.50
2022-12-18T10:16:03.881Z,68.80
2022-12-18T10:18:51.638Z,68.80
2022-12-18T10:21:29.829Z,69.00
2022-12-18T10:24:22.550Z,68.70
2022-12-18T10:26:50.800Z,69.10
2022-12-18T10:29:18.527Z,69.10
2022-12-18T10:31:47.849Z,68.60
2022-12-18T10:34:16.141Z,68.30
2022-12-18T10:36:44.361Z,68.60
2022-12-18T10:39:20.527Z,69.00
2022-12-18T10:41:52.800Z,69.00
2022-12-18T10:44:28.517Z,68.90
2022-12-18T10:47:10.172Z,68.80
2022-12-18T10:49:49.381Z,68.40
2022-12-18T10:52:23.553Z,68.60
2022-12-18T10:55:05.414Z,69.00
2022-12-18T10:57:42.610Z,68.40
2022-12-18T11:00:28.742Z,68.20
2022-12-18T11:02:58.003Z,69.00
2022-12-18T11:05:31.933Z,69.50
2022-12-18T11:08:01.087Z,68.70
2022-12-18T11:10:33.543Z,68.80
2022-12-18T11:13:18.252Z,68.90
2022-12-18T11:15:45.951Z,68.80
2022-12-18T11:18:25.300Z,69.20
2022-12-18T11:21:08.937Z,69.20
2022-12-18T11:23:45.350Z,68.90
2022-12-18T11:26:13.037Z,69.10
2022-12-18T11:29:23.696Z,69.00
2022-12-18T11:31:51.198Z,68.20
2022-12-18T11:34:31.369Z,67.90
2022-12-18T11:37:00.956Z,68.40
2022-12-18T11:40:04.281Z,68.10
2022-12-18T11:42:59.440Z,68.70
2022-12-18T11:45:32.683Z,68.90
2022-12-18T11:48:04.661Z,68.90
2022-12-18T11:50:47.589Z,68.10
2022-12-18T11:53:16.342Z,68.40
2022-12-18T11:56:12.517Z,67.10
2022-12-18T11:58:52.150Z,67.80
2022-12-18T12:01:43.695Z,68.50
2022-12-18T12:04:26.869Z,69.40
2022-12-18T12:07:03.735Z,67.70
2022-12-18T12:09:35.318Z,66.80
2022-12-18T12:12:19.927Z,66.70
2022-12-18T12:15:16.541Z,66.00
2022-12-18T12:17:52.303Z,64.80
2022-12-18T12:20:48.503Z,65.40
2022-12-18T12:23:20.018Z,65.20
2022-12-18T12:26:08.931Z,64.90
2022-12-18T12:29:00.263Z,64.50
2022-12-18T12:31:35.387Z,63.90
2022-12-18T12:34:41.595Z,63.90
2022-12-18T12:37:24.420Z,64.00
2022-12-18T12:39:55.605Z,62.90
2022-12-18T12:42:55.286Z,61.90
2022-12-18T12:45:49.971Z,61.70
2022-12-18T12:48:29.305Z,61.10
2022-12-18T12:50:58.189Z,59.90
2022-12-18T12:53:33.898Z,59.50
2022-12-18T12:56:03.778Z,59.50
2022-12-18T12:58:38.682Z,59.30
2022-12-18T13:01:39.020Z,60.00
2022-12-18T13:04:26.854Z,59.90
2022-12-18T13:07:13.224Z,59.70
2022-12-18T13:10:09.623Z,59.60
2022-12-18T13:16:09.190Z,60.00
2022-12-18T13:18:39.479Z,59.50
2022-12-18T13:21:24.980Z,59.20
2022-12-18T13:23:54.985Z,59.70
2022-12-18T13:26:29.096Z,60.00
2022-12-18T13:28:59.364Z,60.30
2022-12-18T13:31:40.784Z,60.60
2022-12-18T13:34:30.851Z,61.80
2022-12-18T13:37:33.266Z,62.10
2022-12-18T13:40:02.529Z,62.30
2022-12-18T13:42:44.988Z,62.00
2022-12-18T13:45:56.828Z,62.60
2022-12-18T13:48:27.059Z,63.20
2022-12-18T13:51:03.088Z,63.60
2022-12-18T13:53:43.558Z,64.00
2022-12-18T13:56:17.576Z,63.20
2022-12-18T13:58:45.290Z,64.00
2022-12-18T14:01:24.334Z,63.70
2022-12-18T14:03:53.288Z,63.60
2022-12-18T14:06:23.186Z,63.70
2022-12-18T14:08:51.291Z,63.70
2022-12-18T14:11:24.082Z,64.10
2022-12-18T14:13:55.071Z,64.70
2022-12-18T14:16:25.644Z,65.10
2022-12-18T14:19:04.072Z,65.40
2022-12-18T14:21:41.200Z,65.80
2022-12-18T14:24:23.502Z,66.20
2022-12-18T14:26:52.315Z,66.70
2022-12-18T14:29:26.000Z,67.10
2022-12-18T14:32:11.777Z,67.50
2022-12-18T14:34:42.697Z,67.70
2022-12-18T14:37:16.339Z,67.90
2022-12-18T14:39:58.984Z,68.00
2022-12-18T14:42:29.374Z,68.20
2022-12-18T14:45:24.393Z,68.20
2022-12-18T14:47:52.501Z,68.00
2022-12-18T14:50:21.188Z,68.00
2022-12-18T14:52:48.849Z,68.00
2022-12-18T14:55:18.438Z,68.00
2022-12-18T14:57:47.185Z,68.00
2022-12-18T15:00:21.339Z,68.00
2022-12-18T15:02:56.978Z,68.10
2022-12-18T15:05:32.257Z,68.20
2022-12-18T15:08:01.805Z,68.10
2022-12-18T15:10:33.111Z,68.10
2022-12-18T15:13:03.539Z,68.00
2022-12-18T15:15:37.342Z,68.00
2022-12-18T15:18:11.753Z,67.90
2022-12-18T15:20:52.925Z,67.80
2022-12-18T15:23:32.056Z,67.80
2022-12-18T15:26:10.093Z,67.70
2022-12-18T15:28:40.810Z,67.60
2022-12-18T15:31:37.271Z,67.60
2022-12-18T15:34:13.715Z,67.50
2022-12-18T15:36:41.774Z,67.50
2022-12-18T15:39:13.591Z,67.50
2022-12-18T15:41:41.355Z,67.50
2022-12-18T15:44:24.100Z,67.50
2022-12-18T15:46:51.514Z,67.50
2022-12-18T15:49:19.234Z,67.50
2022-12-18T15:51:54.503Z,67.50
2022-12-18T15:54:42.715Z,67.50
2022-12-18T15:57:26.438Z,67.50
2022-12-18T15:59:59.293Z,67.40
2022-12-18T16:02:31.172Z,67.30
2022-12-18T16:04:59.451Z,67.30
2022-12-18T16:07:30.288Z,67.20
2022-12-18T16:09:59.108Z,67.10
2022-12-18T16:12:30.239Z,67.10
2022-12-18T16:15:00.005Z,67.00
2022-12-18T16:17:27.643Z,67.20
2022-12-18T16:19:57.699Z,67.20
2022-12-18T16:22:29.118Z,67.20
2022-12-18T16:24:58.258Z,67.10
2022-12-18T16:27:26.503Z,67.10
2022-12-18T16:29:54.386Z,67.20
2022-12-18T16:32:24.820Z,67.20
2022-12-18T16:34:52.875Z,67.20
2022-12-18T16:37:20.324Z,67.10
2022-12-18T16:39:48.067Z,67.00
2022-12-18T16:42:22.843Z,66.90
2022-12-18T16:44:51.469Z,66.90
2022-12-18T16:47:20.106Z,66.70
2022-12-18T16:49:53.028Z,66.60
2022-12-18T16:52:21.265Z,66.70
2022-12-18T16:54:50.224Z,66.70
2022-12-18T16:57:20.195Z,66.70
2022-12-18T16:59:49.845Z,66.70
2022-12-18T17:02:24.535Z,66.70
2022-12-18T17:04:55.649Z,66.70
2022-12-18T17:07:25.278Z,66.70
2022-12-18T17:09:54.353Z,66.60
2022-12-18T17:12:21.952Z,66.60
2022-12-18T17:14:50.133Z,66.50
2022-12-18T17:17:21.320Z,66.50
2022-12-18T17:19:50.426Z,66.40
2022-12-18T17:22:18.402Z,66.20
2022-12-18T17:24:47.551Z,66.20
2022-12-18T17:27:17.346Z,66.10
2022-12-18T17:29:48.243Z,66.10
2022-12-18T17:32:17.119Z,66.20
2022-12-18T17:34:44.830Z,66.20
2022-12-18T17:37:12.794Z,66.30
2022-12-18T17:39:40.676Z,66.30
2022-12-18T17:42:12.087Z,66.30
2022-12-18T17:44:43.964Z,66.30
2022-12-18T17:47:13.341Z,66.20
2022-12-18T17:49:41.316Z,66.20
2022-12-18T17:52:11.874Z,66.20
2022-12-18T17:54:42.478Z,66.30
2022-12-18T17:57:10.611Z,66.40
2022-12-18T17:59:38.215Z,66.50
2022-12-18T18:02:06.144Z,66.40
2022-12-18T18:04:34.196Z,66.40
2022-12-18T18:07:03.218Z,66.50
2022-12-18T18:09:34.936Z,66.50
2022-12-18T18:12:16.329Z,66.60
2022-12-18T18:14:45.286Z,66.60
2022-12-18T18:17:13.679Z,66.60
2022-12-18T18:19:44.839Z,66.50
2022-12-18T18:22:16.957Z,66.50
2022-12-18T18:24:46.982Z,66.50
2022-12-18T18:27:15.107Z,66.50
2022-12-18T18:29:42.996Z,66.50
2022-12-18T18:32:10.608Z,66.50
2022-12-18T18:34:41.654Z,66.50
2022-12-18T18:37:10.551Z,66.40
2022-12-18T18:39:39.158Z,66.40
2022-12-18T18:42:07.188Z,66.30
2022-12-18T18:44:35.906Z,66.20
2022-12-18T18:47:04.242Z,66.20
2022-12-18T18:49:35.910Z,66.30
2022-12-18T18:52:03.405Z,66.40
2022-12-18T18:54:31.311Z,66.40
2022-12-18T18:59:48.411Z,66.40
2022-12-18T19:02:19.868Z,66.40
2022-12-18T19:04:47.867Z,66.30
2022-12-18T19:07:29.600Z,66.30
2022-12-18T19:10:04.035Z,66.40
2022-12-18T19:12:48.147Z,66.40
2022-12-18T19:15:16.009Z,66.50
2022-12-18T19:17:46.002Z,66.40
2022-12-18T19:20:15.582Z,66.40
2022-12-18T19:22:43.237Z,66.40
2022-12-18T19:25:12.625Z,66.40
2022-12-18T19:27:40.236Z,66.40
2022-12-18T19:30:08.940Z,66.40
2022-12-18T19:32:36.545Z,66.40
2022-12-18T19:35:04.377Z,66.40
2022-12-18T19:37:31.965Z,66.20
2022-12-18T19:39:59.838Z,66.20
2022-12-18T19:42:35.356Z,66.20
2022-12-18T19:45:03.400Z,66.30
2022-12-18T19:47:32.485Z,66.40
2022-12-18T19:50:00.506Z,66.40
2022-12-18T19:52:28.023Z,66.40
2022-12-18T19:54:55.625Z,66.40
2022-12-18T19:57:23.086Z,66.30
2022-12-18T19:59:50.707Z,66.40
2022-12-18T20:02:19.140Z,66.30
2022-12-18T20:04:47.130Z,66.30
2022-12-18T20:07:14.668Z,66.30
2022-12-18T20:09:42.321Z,66.40
2022-12-18T20:12:10.032Z,66.40
2022-12-18T20:14:37.601Z,66.30
2022-12-18T20:17:05.385Z,66.30
2022-12-18T20:19:34.168Z,66.50
2022-12-18T20:22:02.141Z,66.50
2022-12-18T20:24:29.882Z,66.50
2022-12-18T20:26:57.577Z,66.50
2022-12-18T20:29:25.922Z,66.40
2022-12-18T20:31:53.701Z,66.40
2022-12-18T20:34:21.369Z,66.40
2022-12-18T20:36:48.976Z,66.40
2022-12-18T20:39:17.983Z,66.40
2022-12-18T20:41:47.010Z,66.40
2022-12-18T20:44:28.881Z,66.50
2022-12-18T20:46:57.977Z,66.50
2022-12-18T20:49:26.879Z,66.60
2022-12-18T20:51:57.613Z,66.60
2022-12-18T20:54:27.373Z,66.50
2022-12-18T20:56:57.087Z,66.50
2022-12-18T20:59:25.825Z,66.60
2022-12-18T21:01:53.591Z,66.60
2022-12-18T21:04:22.404Z,66.60
2022-12-18T21:06:55.617Z,66.60
2022-12-18T21:09:30.688Z,66.60
2022-12-18T21:12:24.436Z,66.70
2022-12-18T21:14:52.158Z,66.70
2022-12-18T21:17:19.484Z,66.70
2022-12-18T21:19:47.260Z,66.70
2022-12-18T21:22:15.436Z,66.70
2022-12-18T21:24:43.302Z,66.60
2022-12-18T21:27:10.830Z,66.60
2022-12-18T21:29:42.291Z,66.60
2022-12-18T21:32:12.469Z,66.60
2022-12-18T21:34:44.687Z,66.70
2022-12-18T21:37:15.324Z,66.80
2022-12-18T21:39:43.390Z,66.90
2022-12-18T21:42:25.328Z,66.80
2022-12-18T21:44:53.260Z,66.90
2022-12-18T21:47:22.714Z,66.80
2022-12-18T21:49:54.587Z,66.80
2022-12-18T21:52:31.440Z,66.70
2022-12-18T21:55:08.366Z,66.80
2022-12-18T21:57:39.512Z,66.80
2022-12-18T22:00:12.471Z,66.80
2022-12-18T22:02:49.568Z,66.80
2022-12-18T22:05:36.079Z,66.80
2022-12-18T22:08:03.728Z,66.90
2022-12-18T22:10:32.090Z,66.90
2022-12-18T22:13:02.556Z,66.90
2022-12-18T22:15:30.600Z,67.00
2022-12-18T22:18:00.089Z,67.00
2022-12-18T22:20:29.802Z,67.00
2022-12-18T22:22:58.276Z,66.90
2022-12-18T22:25:25.885Z,66.90
2022-12-18T22:28:06.347Z,66.80
2022-12-18T22:30:34.163Z,66.90
2022-12-18T22:33:02.169Z,67.00
2022-12-18T22:35:29.852Z,67.00
2022-12-18T22:37:59.853Z,66.90
2022-12-18T22:40:28.218Z,66.90
2022-12-18T22:42:56.103Z,66.80
2022-12-18T22:45:27.961Z,66.80
2022-12-18T22:47:55.540Z,66.70
2022-12-18T22:50:23.114Z,66.70
2022-12-18T22:52:50.451Z,66.70
2022-12-18T22:55:18.008Z,66.70
2022-12-18T22:57:48.652Z,66.70
2022-12-18T23:00:23.864Z,66.80
2022-12-18T23:03:00.390Z,66.90
2022-12-18T23:05:30.799Z,66.90
2022-12-18T23:07:58.679Z,66.90
2022-12-18T23:10:27.636Z,66.80
2022-12-18T23:12:56.451Z,66.70
2022-12-18T23:15:27.758Z,66.80
2022-12-18T23:17:59.406Z,66.80
2022-12-18T23:20:28.019Z,66.80
2022-12-18T23:22:55.409Z,66.70
2022-12-18T23:25:23.404Z,66.70
2022-12-18T23:27:51.089Z,66.80
2022-12-18T23:30:18.982Z,66.80
2022-12-18T23:32:46.528Z,66.90
2022-12-18T23:35:15.756Z,66.80
2022-12-18T23:38:00.641Z,66.90
2022-12-18T23:40:29.709Z,67.00
2022-12-18T23:42:58.694Z,67.00
2022-12-18T23:45:26.391Z,67.00
2022-12-18T23:47:53.892Z,67.00
2022-12-18T23:50:23.601Z,66.90
2022-12-18T23:52:56.956Z,66.90
2022-12-18T23:55:30.174Z,67.00
2022-12-18T23:57:57.667Z,66.90
